KTOR/TOR METAR and TAF weather

Enter ICAO airport designator
Station Type Date Time Source
KTOR METAR 2019/08/26 06:53 UTC NOAA

KTOR 260653Z AUTO 35007G22KT 10SM CLR 17/12 A2994 RMK AO2 PK WND 04033/0616 PRESRR SLP085 T01670122 403390133


Station Type Date Time Source
KTOR Decoded METAR 2019/08/26 06:53 UTC NOAA

Station name not available
Aug 26, 2019 - 02:53 AM EDT / 2019.08.26 0653 UTC
Wind: from the N (350 degrees) at 8 MPH (7 KT) gusting to 25 MPH (22 KT):0
Visibility: 10 mile(s):0
Sky conditions: clear
Temperature: 62.1 F (16.7 C)
Dew Point: 54.0 F (12.2 C)
Relative Humidity: 74%
Pressure (altimeter): 29.94 in. Hg (1013 hPa)
Pressure tendency: rising rapidly
ob: KTOR 260653Z AUTO 35007G22KT 10SM CLR 17/12 A2994 RMK AO2 PK WND 04033/0616 PRESRR SLP085 T01670122 403390133
cycle: 7

Station Type Date Time Source
KTOR TAF UTC NOAA

Error!

Example: see airport list